sensor_id;sensor_type;location;lat;lon;timestamp;P1;durP1;ratioP1;P2;durP2;ratioP2
66633;SDS011;53546;52.184;5.596;2023-02-11T00:01:41;6.25;;;2.40;;
66633;SDS011;53546;52.184;5.596;2023-02-11T00:04:07;4.80;;;2.35;;
66633;SDS011;53546;52.184;5.596;2023-02-11T00:06:33;5.57;;;2.15;;
66633;SDS011;53546;52.184;5.596;2023-02-11T00:08:59;3.22;;;1.92;;
66633;SDS011;53546;52.184;5.596;2023-02-11T00:11:25;4.95;;;2.33;;
66633;SDS011;53546;52.184;5.596;2023-02-11T00:13:59;7.68;;;2.47;;
66633;SDS011;53546;52.184;5.596;2023-02-11T00:16:26;5.25;;;2.03;;
66633;SDS011;53546;52.184;5.596;2023-02-11T00:18:52;6.88;;;2.53;;
66633;SDS011;53546;52.184;5.596;2023-02-11T00:21:23;5.15;;;2.28;;
66633;SDS011;53546;52.184;5.596;2023-02-11T00:23:49;4.75;;;2.22;;
66633;SDS011;53546;52.184;5.596;2023-02-11T00:26:16;6.10;;;2.50;;
66633;SDS011;53546;52.184;5.596;2023-02-11T00:28:42;6.18;;;1.92;;
66633;SDS011;53546;52.184;5.596;2023-02-11T00:31:08;5.03;;;1.98;;
66633;SDS011;53546;52.184;5.596;2023-02-11T00:33:34;7.85;;;2.40;;
66633;SDS011;53546;52.184;5.596;2023-02-11T00:36:03;8.43;;;2.42;;
66633;SDS011;53546;52.184;5.596;2023-02-11T00:38:30;6.38;;;2.33;;
66633;SDS011;53546;52.184;5.596;2023-02-11T00:40:55;7.00;;;2.10;;
66633;SDS011;53546;52.184;5.596;2023-02-11T00:43:20;5.93;;;2.00;;
66633;SDS011;53546;52.184;5.596;2023-02-11T00:45:46;5.32;;;2.13;;
66633;SDS011;53546;52.184;5.596;2023-02-11T00:48:11;4.43;;;1.90;;
66633;SDS011;53546;52.184;5.596;2023-02-11T00:50:37;5.70;;;2.30;;
66633;SDS011;53546;52.184;5.596;2023-02-11T00:53:02;7.18;;;2.40;;
66633;SDS011;53546;52.184;5.596;2023-02-11T00:55:27;8.20;;;2.50;;
66633;SDS011;53546;52.184;5.596;2023-02-11T00:57:53;9.23;;;2.30;;
66633;SDS011;53546;52.184;5.596;2023-02-11T01:00:18;5.70;;;2.13;;
66633;SDS011;53546;52.184;5.596;2023-02-11T01:02:44;5.82;;;2.30;;
66633;SDS011;53546;52.184;5.596;2023-02-11T01:05:09;7.43;;;2.28;;
66633;SDS011;53546;52.184;5.596;2023-02-11T01:07:35;5.53;;;2.22;;
66633;SDS011;53546;52.184;5.596;2023-02-11T01:10:00;5.30;;;2.35;;
66633;SDS011;53546;52.184;5.596;2023-02-11T01:12:25;5.68;;;2.25;;
66633;SDS011;53546;52.184;5.596;2023-02-11T01:14:51;6.78;;;2.42;;
66633;SDS011;53546;52.184;5.596;2023-02-11T01:17:16;6.50;;;2.05;;
66633;SDS011;53546;52.184;5.596;2023-02-11T01:19:42;5.20;;;2.10;;
66633;SDS011;53546;52.184;5.596;2023-02-11T01:22:07;5.40;;;2.28;;
66633;SDS011;53546;52.184;5.596;2023-02-11T01:24:32;7.30;;;2.40;;
66633;SDS011;53546;52.184;5.596;2023-02-11T01:26:58;4.20;;;2.28;;
66633;SDS011;53546;52.184;5.596;2023-02-11T01:29:23;5.30;;;2.10;;
66633;SDS011;53546;52.184;5.596;2023-02-11T01:31:49;5.82;;;2.28;;
66633;SDS011;53546;52.184;5.596;2023-02-11T01:34:14;7.32;;;2.15;;
66633;SDS011;53546;52.184;5.596;2023-02-11T01:36:40;5.88;;;2.05;;
66633;SDS011;53546;52.184;5.596;2023-02-11T01:39:05;8.07;;;2.80;;
66633;SDS011;53546;52.184;5.596;2023-02-11T01:41:32;5.57;;;2.20;;
66633;SDS011;53546;52.184;5.596;2023-02-11T01:46:51;4.35;;;2.25;;
66633;SDS011;53546;52.184;5.596;2023-02-11T01:49:18;6.43;;;2.30;;
66633;SDS011;53546;52.184;5.596;2023-02-11T01:51:50;11.60;;;2.63;;
66633;SDS011;53546;52.184;5.596;2023-02-11T01:54:20;7.93;;;2.30;;
66633;SDS011;53546;52.184;5.596;2023-02-11T01:57:05;7.03;;;2.05;;
66633;SDS011;53546;52.184;5.596;2023-02-11T02:00:32;5.82;;;2.20;;
66633;SDS011;53546;52.184;5.596;2023-02-11T02:07:53;7.10;;;2.30;;
66633;SDS011;53546;52.184;5.596;2023-02-11T02:10:35;5.70;;;2.10;;
66633;SDS011;53546;52.184;5.596;2023-02-11T02:13:02;5.28;;;2.38;;
66633;SDS011;53546;52.184;5.596;2023-02-11T02:15:31;6.90;;;2.67;;
66633;SDS011;53546;52.184;5.596;2023-02-11T02:17:59;4.57;;;1.35;;
66633;SDS011;53546;52.184;5.596;2023-02-11T02:21:02;5.07;;;1.85;;
66633;SDS011;53546;52.184;5.596;2023-02-11T02:24:01;4.82;;;1.70;;
66633;SDS011;53546;52.184;5.596;2023-02-11T02:34:43;6.15;;;2.08;;
66633;SDS011;53546;52.184;5.596;2023-02-11T02:39:48;6.15;;;2.22;;
66633;SDS011;53546;52.184;5.596;2023-02-11T02:42:14;5.78;;;1.90;;
66633;SDS011;53546;52.184;5.596;2023-02-11T02:44:40;6.25;;;2.15;;
66633;SDS011;53546;52.184;5.596;2023-02-11T02:47:05;5.07;;;2.20;;
66633;SDS011;53546;52.184;5.596;2023-02-11T02:49:30;9.63;;;2.80;;
66633;SDS011;53546;52.184;5.596;2023-02-11T02:52:12;4.78;;;1.75;;
66633;SDS011;53546;52.184;5.596;2023-02-11T02:58:01;5.20;;;2.03;;
66633;SDS011;53546;52.184;5.596;2023-02-11T03:03:04;7.68;;;2.20;;
66633;SDS011;53546;52.184;5.596;2023-02-11T03:10:48;6.70;;;2.03;;
66633;SDS011;53546;52.184;5.596;2023-02-11T03:13:15;5.25;;;2.00;;
66633;SDS011;53546;52.184;5.596;2023-02-11T03:15:43;6.82;;;2.20;;
66633;SDS011;53546;52.184;5.596;2023-02-11T03:18:11;6.15;;;1.88;;
66633;SDS011;53546;52.184;5.596;2023-02-11T03:20:39;5.97;;;2.20;;
66633;SDS011;53546;52.184;5.596;2023-02-11T03:25:36;8.70;;;2.17;;
66633;SDS011;53546;52.184;5.596;2023-02-11T03:28:08;5.03;;;1.92;;
66633;SDS011;53546;52.184;5.596;2023-02-11T03:30:54;5.90;;;2.55;;
66633;SDS011;53546;52.184;5.596;2023-02-11T03:33:28;5.75;;;2.03;;
66633;SDS011;53546;52.184;5.596;2023-02-11T03:35:59;6.50;;;2.00;;
66633;SDS011;53546;52.184;5.596;2023-02-11T03:38:29;6.00;;;2.00;;
66633;SDS011;53546;52.184;5.596;2023-02-11T03:40:57;11.60;;;2.95;;
66633;SDS011;53546;52.184;5.596;2023-02-11T03:43:25;5.47;;;2.20;;
66633;SDS011;53546;52.184;5.596;2023-02-11T03:45:56;5.15;;;2.25;;
66633;SDS011;53546;52.184;5.596;2023-02-11T03:48:30;5.63;;;1.90;;
66633;SDS011;53546;52.184;5.596;2023-02-11T03:50:59;4.15;;;2.28;;
66633;SDS011;53546;52.184;5.596;2023-02-11T03:53:27;5.57;;;2.10;;
66633;SDS011;53546;52.184;5.596;2023-02-11T03:55:53;5.93;;;2.35;;
66633;SDS011;53546;52.184;5.596;2023-02-11T03:58:19;4.97;;;2.20;;
66633;SDS011;53546;52.184;5.596;2023-02-11T04:00:45;6.88;;;2.03;;
66633;SDS011;53546;52.184;5.596;2023-02-11T04:03:11;3.88;;;1.75;;
66633;SDS011;53546;52.184;5.596;2023-02-11T04:05:37;5.20;;;2.13;;
66633;SDS011;53546;52.184;5.596;2023-02-11T04:08:02;7.38;;;2.55;;
66633;SDS011;53546;52.184;5.596;2023-02-11T04:10:28;5.53;;;2.20;;
66633;SDS011;53546;52.184;5.596;2023-02-11T04:12:53;4.97;;;1.85;;
66633;SDS011;53546;52.184;5.596;2023-02-11T04:15:19;6.13;;;2.33;;
66633;SDS011;53546;52.184;5.596;2023-02-11T04:17:44;6.75;;;2.22;;
66633;SDS011;53546;52.184;5.596;2023-02-11T04:20:10;5.18;;;2.30;;
66633;SDS011;53546;52.184;5.596;2023-02-11T04:22:35;4.45;;;2.30;;
66633;SDS011;53546;52.184;5.596;2023-02-11T04:25:01;7.63;;;2.40;;
66633;SDS011;53546;52.184;5.596;2023-02-11T04:27:27;5.13;;;2.47;;
66633;SDS011;53546;52.184;5.596;2023-02-11T04:29:53;6.03;;;2.38;;
66633;SDS011;53546;52.184;5.596;2023-02-11T04:32:18;5.32;;;2.00;;
66633;SDS011;53546;52.184;5.596;2023-02-11T04:34:44;3.50;;;1.92;;
66633;SDS011;53546;52.184;5.596;2023-02-11T04:37:09;7.68;;;2.28;;
66633;SDS011;53546;52.184;5.596;2023-02-11T04:39:34;5.28;;;1.95;;
66633;SDS011;53546;52.184;5.596;2023-02-11T04:42:00;5.93;;;2.20;;
66633;SDS011;53546;52.184;5.596;2023-02-11T04:44:25;4.72;;;2.13;;
66633;SDS011;53546;52.184;5.596;2023-02-11T04:46:51;7.32;;;2.22;;
66633;SDS011;53546;52.184;5.596;2023-02-11T04:49:16;6.28;;;2.30;;
66633;SDS011;53546;52.184;5.596;2023-02-11T04:51:42;5.82;;;2.70;;
66633;SDS011;53546;52.184;5.596;2023-02-11T04:54:08;5.40;;;2.00;;
66633;SDS011;53546;52.184;5.596;2023-02-11T04:56:34;5.95;;;2.42;;
66633;SDS011;53546;52.184;5.596;2023-02-11T04:59:01;7.38;;;2.72;;
66633;SDS011;53546;52.184;5.596;2023-02-11T05:01:26;5.13;;;2.60;;
66633;SDS011;53546;52.184;5.596;2023-02-11T05:03:52;6.95;;;2.28;;
66633;SDS011;53546;52.184;5.596;2023-02-11T05:06:17;7.13;;;2.60;;
66633;SDS011;53546;52.184;5.596;2023-02-11T05:08:43;5.88;;;2.50;;
66633;SDS011;53546;52.184;5.596;2023-02-11T05:11:15;5.53;;;2.58;;
66633;SDS011;53546;52.184;5.596;2023-02-11T05:13:43;5.63;;;2.50;;
66633;SDS011;53546;52.184;5.596;2023-02-11T05:16:08;5.03;;;2.20;;
66633;SDS011;53546;52.184;5.596;2023-02-11T05:18:38;9.55;;;2.53;;
66633;SDS011;53546;52.184;5.596;2023-02-11T05:21:05;5.18;;;2.40;;
66633;SDS011;53546;52.184;5.596;2023-02-11T05:23:34;4.72;;;2.40;;
66633;SDS011;53546;52.184;5.596;2023-02-11T05:26:00;8.43;;;2.72;;
66633;SDS011;53546;52.184;5.596;2023-02-11T05:28:26;5.32;;;2.40;;
66633;SDS011;53546;52.184;5.596;2023-02-11T05:30:51;4.75;;;2.33;;
66633;SDS011;53546;52.184;5.596;2023-02-11T05:33:17;7.47;;;2.83;;
66633;SDS011;53546;52.184;5.596;2023-02-11T05:35:42;5.93;;;2.72;;
66633;SDS011;53546;52.184;5.596;2023-02-11T05:38:08;8.57;;;2.78;;
66633;SDS011;53546;52.184;5.596;2023-02-11T05:40:33;6.10;;;3.03;;
66633;SDS011;53546;52.184;5.596;2023-02-11T05:42:58;6.90;;;2.35;;
66633;SDS011;53546;52.184;5.596;2023-02-11T05:45:24;5.38;;;2.65;;
66633;SDS011;53546;52.184;5.596;2023-02-11T05:47:52;9.10;;;2.58;;
66633;SDS011;53546;52.184;5.596;2023-02-11T05:50:17;6.70;;;2.70;;
66633;SDS011;53546;52.184;5.596;2023-02-11T05:52:42;6.85;;;2.75;;
66633;SDS011;53546;52.184;5.596;2023-02-11T05:55:08;6.35;;;2.95;;
66633;SDS011;53546;52.184;5.596;2023-02-11T05:57:33;6.38;;;2.63;;
66633;SDS011;53546;52.184;5.596;2023-02-11T05:59:59;6.88;;;2.67;;
66633;SDS011;53546;52.184;5.596;2023-02-11T06:02:24;7.70;;;2.80;;
66633;SDS011;53546;52.184;5.596;2023-02-11T06:04:49;7.47;;;3.03;;
66633;SDS011;53546;52.184;5.596;2023-02-11T06:07:15;7.55;;;2.63;;
66633;SDS011;53546;52.184;5.596;2023-02-11T06:09:41;5.85;;;2.60;;
66633;SDS011;53546;52.184;5.596;2023-02-11T06:12:06;6.55;;;2.70;;
66633;SDS011;53546;52.184;5.596;2023-02-11T06:14:32;6.63;;;2.67;;
66633;SDS011;53546;52.184;5.596;2023-02-11T06:16:58;7.43;;;3.10;;
66633;SDS011;53546;52.184;5.596;2023-02-11T06:19:23;6.32;;;2.78;;
66633;SDS011;53546;52.184;5.596;2023-02-11T06:21:49;7.22;;;2.85;;
66633;SDS011;53546;52.184;5.596;2023-02-11T06:24:14;6.65;;;2.88;;
66633;SDS011;53546;52.184;5.596;2023-02-11T06:26:40;6.40;;;2.30;;
66633;SDS011;53546;52.184;5.596;2023-02-11T06:29:05;6.85;;;2.88;;
66633;SDS011;53546;52.184;5.596;2023-02-11T06:31:30;5.45;;;2.78;;
66633;SDS011;53546;52.184;5.596;2023-02-11T06:33:56;7.13;;;2.70;;
66633;SDS011;53546;52.184;5.596;2023-02-11T06:36:23;5.80;;;2.83;;
66633;SDS011;53546;52.184;5.596;2023-02-11T06:38:48;5.40;;;2.95;;
66633;SDS011;53546;52.184;5.596;2023-02-11T06:41:16;7.13;;;2.63;;
66633;SDS011;53546;52.184;5.596;2023-02-11T06:43:43;5.60;;;2.92;;
66633;SDS011;53546;52.184;5.596;2023-02-11T06:46:09;7.90;;;2.50;;
66633;SDS011;53546;52.184;5.596;2023-02-11T06:48:34;6.97;;;3.00;;
66633;SDS011;53546;52.184;5.596;2023-02-11T06:51:01;6.40;;;2.58;;
66633;SDS011;53546;52.184;5.596;2023-02-11T06:53:28;6.55;;;3.10;;
66633;SDS011;53546;52.184;5.596;2023-02-11T06:55:53;6.45;;;2.65;;
66633;SDS011;53546;52.184;5.596;2023-02-11T06:58:19;7.38;;;3.22;;
66633;SDS011;53546;52.184;5.596;2023-02-11T07:00:44;5.45;;;2.95;;
66633;SDS011;53546;52.184;5.596;2023-02-11T07:03:10;9.85;;;3.10;;
66633;SDS011;53546;52.184;5.596;2023-02-11T07:05:35;5.95;;;2.55;;
66633;SDS011;53546;52.184;5.596;2023-02-11T07:08:02;6.40;;;3.05;;
66633;SDS011;53546;52.184;5.596;2023-02-11T07:10:28;8.27;;;3.35;;
66633;SDS011;53546;52.184;5.596;2023-02-11T07:12:54;5.63;;;2.83;;
66633;SDS011;53546;52.184;5.596;2023-02-11T07:15:19;4.97;;;2.67;;
66633;SDS011;53546;52.184;5.596;2023-02-11T07:17:44;6.65;;;2.80;;
66633;SDS011;53546;52.184;5.596;2023-02-11T07:20:10;4.20;;;2.88;;
66633;SDS011;53546;52.184;5.596;2023-02-11T07:22:38;6.20;;;2.75;;
66633;SDS011;53546;52.184;5.596;2023-02-11T07:25:04;8.50;;;3.33;;
66633;SDS011;53546;52.184;5.596;2023-02-11T07:27:29;7.78;;;3.10;;
66633;SDS011;53546;52.184;5.596;2023-02-11T07:29:58;7.35;;;3.08;;
66633;SDS011;53546;52.184;5.596;2023-02-11T07:32:24;6.80;;;3.22;;
66633;SDS011;53546;52.184;5.596;2023-02-11T07:34:49;6.88;;;3.65;;
66633;SDS011;53546;52.184;5.596;2023-02-11T07:37:15;6.90;;;3.03;;
66633;SDS011;53546;52.184;5.596;2023-02-11T07:39:40;4.38;;;2.90;;
66633;SDS011;53546;52.184;5.596;2023-02-11T07:42:05;8.00;;;3.17;;
66633;SDS011;53546;52.184;5.596;2023-02-11T07:44:31;8.07;;;3.10;;
66633;SDS011;53546;52.184;5.596;2023-02-11T07:46:57;11.82;;;3.08;;
66633;SDS011;53546;52.184;5.596;2023-02-11T07:49:23;5.22;;;2.90;;
66633;SDS011;53546;52.184;5.596;2023-02-11T07:51:48;8.73;;;3.47;;
66633;SDS011;53546;52.184;5.596;2023-02-11T07:54:15;8.45;;;3.45;;
66633;SDS011;53546;52.184;5.596;2023-02-11T07:56:41;7.18;;;3.35;;
66633;SDS011;53546;52.184;5.596;2023-02-11T07:59:06;4.50;;;3.13;;
66633;SDS011;53546;52.184;5.596;2023-02-11T08:01:32;6.78;;;3.40;;
66633;SDS011;53546;52.184;5.596;2023-02-11T08:03:58;6.28;;;3.55;;
66633;SDS011;53546;52.184;5.596;2023-02-11T08:06:26;7.90;;;3.33;;
66633;SDS011;53546;52.184;5.596;2023-02-11T08:08:52;6.97;;;3.40;;
66633;SDS011;53546;52.184;5.596;2023-02-11T08:11:22;12.40;;;3.55;;
66633;SDS011;53546;52.184;5.596;2023-02-11T08:13:50;10.98;;;3.75;;
66633;SDS011;53546;52.184;5.596;2023-02-11T08:16:17;4.35;;;3.33;;
66633;SDS011;53546;52.184;5.596;2023-02-11T08:18:44;10.30;;;3.78;;
66633;SDS011;53546;52.184;5.596;2023-02-11T08:21:10;6.07;;;3.13;;
66633;SDS011;53546;52.184;5.596;2023-02-11T08:23:36;6.22;;;3.58;;
66633;SDS011;53546;52.184;5.596;2023-02-11T08:26:06;10.23;;;4.00;;
66633;SDS011;53546;52.184;5.596;2023-02-11T08:28:34;5.93;;;3.72;;
66633;SDS011;53546;52.184;5.596;2023-02-11T08:31:07;7.32;;;3.80;;
66633;SDS011;53546;52.184;5.596;2023-02-11T08:33:34;7.35;;;4.00;;
66633;SDS011;53546;52.184;5.596;2023-02-11T08:36:00;13.40;;;3.50;;
66633;SDS011;53546;52.184;5.596;2023-02-11T08:38:26;10.82;;;3.60;;
66633;SDS011;53546;52.184;5.596;2023-02-11T08:40:51;7.55;;;3.58;;
66633;SDS011;53546;52.184;5.596;2023-02-11T08:43:17;7.40;;;4.05;;
66633;SDS011;53546;52.184;5.596;2023-02-11T08:45:42;7.90;;;4.03;;
66633;SDS011;53546;52.184;5.596;2023-02-11T08:48:08;6.35;;;3.53;;
66633;SDS011;53546;52.184;5.596;2023-02-11T08:50:33;7.38;;;3.50;;
66633;SDS011;53546;52.184;5.596;2023-02-11T08:53:02;7.18;;;3.50;;
66633;SDS011;53546;52.184;5.596;2023-02-11T08:55:28;7.32;;;2.88;;
66633;SDS011;53546;52.184;5.596;2023-02-11T08:57:54;9.10;;;4.63;;
66633;SDS011;53546;52.184;5.596;2023-02-11T09:00:19;12.25;;;4.35;;
66633;SDS011;53546;52.184;5.596;2023-02-11T09:02:45;8.88;;;4.32;;
66633;SDS011;53546;52.184;5.596;2023-02-11T09:05:10;10.40;;;4.10;;
66633;SDS011;53546;52.184;5.596;2023-02-11T09:07:36;11.27;;;3.97;;
66633;SDS011;53546;52.184;5.596;2023-02-11T09:10:01;10.90;;;4.05;;
66633;SDS011;53546;52.184;5.596;2023-02-11T09:12:26;8.88;;;3.85;;
66633;SDS011;53546;52.184;5.596;2023-02-11T09:14:52;12.85;;;4.10;;
66633;SDS011;53546;52.184;5.596;2023-02-11T09:17:17;9.30;;;3.90;;
66633;SDS011;53546;52.184;5.596;2023-02-11T09:19:43;9.70;;;4.10;;
66633;SDS011;53546;52.184;5.596;2023-02-11T09:22:08;8.55;;;3.97;;
66633;SDS011;53546;52.184;5.596;2023-02-11T09:24:33;8.68;;;3.85;;
66633;SDS011;53546;52.184;5.596;2023-02-11T09:26:59;14.10;;;4.13;;
66633;SDS011;53546;52.184;5.596;2023-02-11T09:29:24;8.35;;;3.58;;
66633;SDS011;53546;52.184;5.596;2023-02-11T09:31:49;10.48;;;4.03;;
66633;SDS011;53546;52.184;5.596;2023-02-11T09:34:15;17.33;;;4.25;;
66633;SDS011;53546;52.184;5.596;2023-02-11T09:36:40;10.23;;;3.80;;
66633;SDS011;53546;52.184;5.596;2023-02-11T09:39:07;10.65;;;4.28;;
66633;SDS011;53546;52.184;5.596;2023-02-11T09:44:25;7.35;;;4.70;;
66633;SDS011;53546;52.184;5.596;2023-02-11T09:46:53;12.40;;;5.93;;
66633;SDS011;53546;52.184;5.596;2023-02-11T09:49:24;8.20;;;6.90;;
66633;SDS011;53546;52.184;5.596;2023-02-11T09:52:01;11.20;;;8.93;;
66633;SDS011;53546;52.184;5.596;2023-02-11T09:54:33;19.08;;;10.05;;
66633;SDS011;53546;52.184;5.596;2023-02-11T09:57:19;11.63;;;10.05;;
66633;SDS011;53546;52.184;5.596;2023-02-11T09:59:44;18.23;;;11.25;;
66633;SDS011;53546;52.184;5.596;2023-02-11T10:02:21;18.95;;;12.38;;
66633;SDS011;53546;52.184;5.596;2023-02-11T10:08:00;19.52;;;14.18;;
66633;SDS011;53546;52.184;5.596;2023-02-11T10:10:50;18.95;;;12.60;;
66633;SDS011;53546;52.184;5.596;2023-02-11T10:13:31;16.88;;;12.35;;
66633;SDS011;53546;52.184;5.596;2023-02-11T10:24:31;18.08;;;13.30;;
66633;SDS011;53546;52.184;5.596;2023-02-11T10:26:57;14.77;;;12.60;;
66633;SDS011;53546;52.184;5.596;2023-02-11T10:29:39;15.00;;;12.05;;
66633;SDS011;53546;52.184;5.596;2023-02-11T10:35:14;24.98;;;13.73;;
66633;SDS011;53546;52.184;5.596;2023-02-11T10:37:42;22.90;;;13.50;;
66633;SDS011;53546;52.184;5.596;2023-02-11T10:40:18;16.77;;;12.57;;
66633;SDS011;53546;52.184;5.596;2023-02-11T10:42:47;24.02;;;12.48;;
66633;SDS011;53546;52.184;5.596;2023-02-11T10:45:27;14.80;;;11.05;;
66633;SDS011;53546;52.184;5.596;2023-02-11T10:47:59;14.73;;;10.52;;
66633;SDS011;53546;52.184;5.596;2023-02-11T10:50:27;12.70;;;10.40;;
66633;SDS011;53546;52.184;5.596;2023-02-11T10:53:10;16.20;;;10.95;;
66633;SDS011;53546;52.184;5.596;2023-02-11T10:55:36;13.50;;;9.18;;
66633;SDS011;53546;52.184;5.596;2023-02-11T10:58:02;13.27;;;9.20;;
66633;SDS011;53546;52.184;5.596;2023-02-11T11:03:01;10.35;;;8.55;;
66633;SDS011;53546;52.184;5.596;2023-02-11T11:07:59;12.82;;;8.25;;
66633;SDS011;53546;52.184;5.596;2023-02-11T11:10:48;9.57;;;7.90;;
66633;SDS011;53546;52.184;5.596;2023-02-11T11:13:30;9.55;;;7.00;;
66633;SDS011;53546;52.184;5.596;2023-02-11T11:18:34;8.63;;;6.15;;
66633;SDS011;53546;52.184;5.596;2023-02-11T11:21:00;8.18;;;6.13;;
66633;SDS011;53546;52.184;5.596;2023-02-11T11:23:30;8.50;;;6.18;;
66633;SDS011;53546;52.184;5.596;2023-02-11T11:26:00;9.23;;;6.22;;
66633;SDS011;53546;52.184;5.596;2023-02-11T11:28:29;10.30;;;6.00;;
66633;SDS011;53546;52.184;5.596;2023-02-11T11:30:57;9.23;;;5.22;;
66633;SDS011;53546;52.184;5.596;2023-02-11T11:33:41;7.22;;;5.00;;
66633;SDS011;53546;52.184;5.596;2023-02-11T11:36:09;5.28;;;4.38;;
66633;SDS011;53546;52.184;5.596;2023-02-11T11:38:42;5.30;;;4.18;;
66633;SDS011;53546;52.184;5.596;2023-02-11T11:43:38;6.72;;;4.15;;
66633;SDS011;53546;52.184;5.596;2023-02-11T11:46:04;8.15;;;4.47;;
66633;SDS011;53546;52.184;5.596;2023-02-11T11:51:08;7.70;;;4.30;;
66633;SDS011;53546;52.184;5.596;2023-02-11T11:56:16;7.25;;;4.32;;
66633;SDS011;53546;52.184;5.596;2023-02-11T11:58:44;7.25;;;4.25;;
66633;SDS011;53546;52.184;5.596;2023-02-11T12:07:32;13.05;;;5.95;;
66633;SDS011;53546;52.184;5.596;2023-02-11T12:12:58;10.60;;;5.80;;
66633;SDS011;53546;52.184;5.596;2023-02-11T12:15:31;21.13;;;5.03;;
66633;SDS011;53546;52.184;5.596;2023-02-11T12:28:52;6.95;;;4.60;;
66633;SDS011;53546;52.184;5.596;2023-02-11T12:42:04;6.13;;;3.85;;
66633;SDS011;53546;52.184;5.596;2023-02-11T12:45:16;6.15;;;3.30;;
66633;SDS011;53546;52.184;5.596;2023-02-11T12:50:29;6.72;;;3.50;;
66633;SDS011;53546;52.184;5.596;2023-02-11T12:56:05;4.47;;;2.70;;
66633;SDS011;53546;52.184;5.596;2023-02-11T12:58:48;5.82;;;2.95;;
66633;SDS011;53546;52.184;5.596;2023-02-11T13:06:42;4.45;;;2.58;;
66633;SDS011;53546;52.184;5.596;2023-02-11T13:09:20;4.20;;;2.55;;
66633;SDS011;53546;52.184;5.596;2023-02-11T13:11:49;5.25;;;2.90;;
66633;SDS011;53546;52.184;5.596;2023-02-11T13:14:24;4.53;;;2.78;;
66633;SDS011;53546;52.184;5.596;2023-02-11T13:16:53;4.20;;;2.65;;
66633;SDS011;53546;52.184;5.596;2023-02-11T13:21:56;2.78;;;2.33;;
66633;SDS011;53546;52.184;5.596;2023-02-11T13:30:12;2.88;;;2.45;;
66633;SDS011;53546;52.184;5.596;2023-02-11T13:40:40;5.05;;;2.30;;
66633;SDS011;53546;52.184;5.596;2023-02-11T13:43:17;5.85;;;2.35;;
66633;SDS011;53546;52.184;5.596;2023-02-11T13:45:45;4.43;;;2.20;;
66633;SDS011;53546;52.184;5.596;2023-02-11T13:48:14;3.42;;;1.98;;
66633;SDS011;53546;52.184;5.596;2023-02-11T13:50:45;5.90;;;2.65;;
66633;SDS011;53546;52.184;5.596;2023-02-11T13:53:12;3.95;;;2.50;;
66633;SDS011;53546;52.184;5.596;2023-02-11T13:55:38;6.30;;;3.42;;
66633;SDS011;53546;52.184;5.596;2023-02-11T14:14:22;12.75;;;8.05;;
66633;SDS011;53546;52.184;5.596;2023-02-11T14:22:10;13.25;;;8.90;;
66633;SDS011;53546;52.184;5.596;2023-02-11T14:24:44;15.55;;;9.73;;
66633;SDS011;53546;52.184;5.596;2023-02-11T14:27:14;14.07;;;9.50;;
66633;SDS011;53546;52.184;5.596;2023-02-11T14:40:53;10.80;;;7.43;;
66633;SDS011;53546;52.184;5.596;2023-02-11T14:43:25;10.98;;;7.25;;
66633;SDS011;53546;52.184;5.596;2023-02-11T14:45:53;18.65;;;7.00;;
66633;SDS011;53546;52.184;5.596;2023-02-11T14:48:21;10.15;;;6.80;;
66633;SDS011;53546;52.184;5.596;2023-02-11T14:51:02;9.00;;;6.32;;
66633;SDS011;53546;52.184;5.596;2023-02-11T14:53:31;8.65;;;5.95;;
66633;SDS011;53546;52.184;5.596;2023-02-11T14:55:57;12.05;;;6.22;;
66633;SDS011;53546;52.184;5.596;2023-02-11T14:58:24;8.57;;;5.85;;
66633;SDS011;53546;52.184;5.596;2023-02-11T15:03:25;8.07;;;5.72;;
66633;SDS011;53546;52.184;5.596;2023-02-11T15:08:46;8.07;;;5.60;;
66633;SDS011;53546;52.184;5.596;2023-02-11T15:11:17;6.32;;;4.43;;
66633;SDS011;53546;52.184;5.596;2023-02-11T15:13:44;8.25;;;5.03;;
66633;SDS011;53546;52.184;5.596;2023-02-11T15:16:14;9.95;;;4.63;;
66633;SDS011;53546;52.184;5.596;2023-02-11T15:18:56;6.80;;;4.30;;
66633;SDS011;53546;52.184;5.596;2023-02-11T15:21:28;8.75;;;4.28;;
66633;SDS011;53546;52.184;5.596;2023-02-11T15:24:05;7.40;;;4.43;;
66633;SDS011;53546;52.184;5.596;2023-02-11T15:26:55;7.28;;;4.30;;
66633;SDS011;53546;52.184;5.596;2023-02-11T15:29:35;6.97;;;4.20;;
66633;SDS011;53546;52.184;5.596;2023-02-11T15:32:04;5.95;;;3.90;;
66633;SDS011;53546;52.184;5.596;2023-02-11T15:34:43;6.95;;;4.10;;
66633;SDS011;53546;52.184;5.596;2023-02-11T15:37:20;4.65;;;3.70;;
66633;SDS011;53546;52.184;5.596;2023-02-11T15:39:46;4.32;;;3.58;;
66633;SDS011;53546;52.184;5.596;2023-02-11T15:44:49;4.85;;;3.20;;
66633;SDS011;53546;52.184;5.596;2023-02-11T15:48:01;6.30;;;3.60;;
66633;SDS011;53546;52.184;5.596;2023-02-11T15:50:30;6.47;;;3.20;;
66633;SDS011;53546;52.184;5.596;2023-02-11T15:52:58;5.28;;;3.28;;
66633;SDS011;53546;52.184;5.596;2023-02-11T15:55:25;6.28;;;3.25;;
66633;SDS011;53546;52.184;5.596;2023-02-11T15:57:52;5.40;;;3.17;;
66633;SDS011;53546;52.184;5.596;2023-02-11T16:00:21;6.53;;;3.10;;
66633;SDS011;53546;52.184;5.596;2023-02-11T16:02:48;6.03;;;3.35;;
66633;SDS011;53546;52.184;5.596;2023-02-11T16:08:23;5.28;;;3.20;;
66633;SDS011;53546;52.184;5.596;2023-02-11T16:10:57;8.38;;;3.10;;
66633;SDS011;53546;52.184;5.596;2023-02-11T16:13:27;7.20;;;3.25;;
66633;SDS011;53546;52.184;5.596;2023-02-11T16:16:01;6.18;;;3.28;;
66633;SDS011;53546;52.184;5.596;2023-02-11T16:18:38;5.43;;;3.33;;
66633;SDS011;53546;52.184;5.596;2023-02-11T16:21:13;6.00;;;3.28;;
66633;SDS011;53546;52.184;5.596;2023-02-11T16:23:40;13.57;;;3.70;;
66633;SDS011;53546;52.184;5.596;2023-02-11T16:26:29;6.95;;;3.45;;
66633;SDS011;53546;52.184;5.596;2023-02-11T16:29:13;6.32;;;3.00;;
66633;SDS011;53546;52.184;5.596;2023-02-11T16:31:49;7.00;;;3.50;;
66633;SDS011;53546;52.184;5.596;2023-02-11T16:34:18;5.25;;;3.40;;
66633;SDS011;53546;52.184;5.596;2023-02-11T16:36:47;4.55;;;3.22;;
66633;SDS011;53546;52.184;5.596;2023-02-11T16:39:15;5.07;;;3.20;;
66633;SDS011;53546;52.184;5.596;2023-02-11T16:41:41;3.53;;;2.85;;
66633;SDS011;53546;52.184;5.596;2023-02-11T16:44:06;4.13;;;2.83;;
66633;SDS011;53546;52.184;5.596;2023-02-11T16:46:32;5.18;;;3.13;;
66633;SDS011;53546;52.184;5.596;2023-02-11T16:48:57;4.78;;;2.90;;
66633;SDS011;53546;52.184;5.596;2023-02-11T16:51:29;5.93;;;2.90;;
66633;SDS011;53546;52.184;5.596;2023-02-11T16:53:55;4.40;;;2.80;;
66633;SDS011;53546;52.184;5.596;2023-02-11T16:56:20;4.70;;;2.75;;
66633;SDS011;53546;52.184;5.596;2023-02-11T16:58:46;3.55;;;3.03;;
66633;SDS011;53546;52.184;5.596;2023-02-11T17:01:11;3.50;;;2.70;;
66633;SDS011;53546;52.184;5.596;2023-02-11T17:03:37;4.40;;;2.70;;
66633;SDS011;53546;52.184;5.596;2023-02-11T17:06:10;3.85;;;2.85;;
66633;SDS011;53546;52.184;5.596;2023-02-11T17:08:37;5.07;;;2.80;;
66633;SDS011;53546;52.184;5.596;2023-02-11T17:11:03;3.33;;;2.45;;
66633;SDS011;53546;52.184;5.596;2023-02-11T17:13:29;3.08;;;2.47;;
66633;SDS011;53546;52.184;5.596;2023-02-11T17:15:54;4.00;;;2.58;;
66633;SDS011;53546;52.184;5.596;2023-02-11T17:18:20;4.15;;;2.63;;
66633;SDS011;53546;52.184;5.596;2023-02-11T17:20:45;4.10;;;2.60;;
66633;SDS011;53546;52.184;5.596;2023-02-11T17:23:11;4.63;;;2.55;;
66633;SDS011;53546;52.184;5.596;2023-02-11T17:25:36;4.38;;;2.42;;
66633;SDS011;53546;52.184;5.596;2023-02-11T17:28:05;3.70;;;2.45;;
66633;SDS011;53546;52.184;5.596;2023-02-11T17:30:31;4.75;;;2.70;;
66633;SDS011;53546;52.184;5.596;2023-02-11T17:32:57;3.63;;;2.60;;
66633;SDS011;53546;52.184;5.596;2023-02-11T17:35:22;4.53;;;2.28;;
66633;SDS011;53546;52.184;5.596;2023-02-11T17:37:48;3.70;;;2.60;;
66633;SDS011;53546;52.184;5.596;2023-02-11T17:40:13;3.50;;;2.30;;
66633;SDS011;53546;52.184;5.596;2023-02-11T17:42:39;4.07;;;2.30;;